Forside
METAR-TAF:

METAR-TAF

Lufthavne :

Tanabe, Japan

Breddekreds: 33-44N, længdekreds: 135-23E, højde: 105 m

Aktuelle vejr

Denne rapport blev lavet for 41 minutter siden, kl. 02:00 UTC
Vind 6 kt fra vest, varierende mellem sydsydvest og nordvest
Temperatur 23°C
Fugtighed 69%
Tryk 1011 hPa
Sigt 10 km eller mere
Nogle få skyer i en højde af 3000 ft
Spredte skyer i en højde af 18000 ft
Brudte skyer

METAR: RJBD 250200Z 28006KT 200V320 9999 FEW030 SCT180 BKN/// 23/17 Q1011

Tid: 11:41 (02:41 UTC)


TAF: fraværende

Vejrobservationer og prognoser fra mere end 4000 lufthavne (METAR og TAF).

De gule og røde prikker repræsenterer de meteorologiske stationer.

Flyt musen over at se navnet på stationen.

Så klik over at se vejr observationer og prognoser.

At skifte det kort: Klik på de grønne knapper med et sort kors for at zoome ind; på den grønne knap med en bindestreg for at zoome ud; eller på de grønne pile for tilstødende kort.


METAR-TAF: